Aérodrome :
LOGIN :

S'inscrire | Disclaimer

   EN    FR    IT 

 










Légende :    VFR   VFR Marginal   IFR   IFR Intensif   IFR Très Intensif
Visi : 
Plafond : 
>= 8 km
>= 3000ft
5 à 8 km
1000 à 3000 ft
1500m à 5 km
500 à 1000 ft
800 à 1500m
200 à 500 ft
< 800m
< 200 ft
Symboles :   Orages  Brouillard  Fortes neiges  Fortes précipitations  Vent > 20 kt
SIGMETs :   Divers  Orages  Givrage  Turbulence  Onde Orograph.  Cendres Volcan.







- Altitude de l'aérodrome : 160 ft
- Code IATA : LRT
- Voir les cartes d'approche


LFRH - Lorient Lann Bihoue

DERNIER METAR :
  • 200100Z AUTO 27006KT 9999 BKN016 BKN021 BKN049 08/08 Q1021 NOSIG

METARs EXPIRÉS :
  • 200030Z AUTO 29006KT 9999 SCT017 BKN130 BKN210 08/07 Q1021 NOSIG
  • 200000Z AUTO 30006KT 9999 FEW019 SCT160 08/07 Q1021 NOSIG
  • 192330Z AUTO 30005KT 9999 FEW018 SCT160 OVC240 08/07 Q1021 NOSIG
  • 192300Z AUTO 29005KT CAVOK 08/08 Q1021 TEMPO BKN008
  • 192230Z AUTO 30004KT 9999 FEW023 SCT150 09/08 Q1021 TEMPO BKN008

TAF TAF LFRH
Valide du 20 à 00h jusqu'au 21 à 00h UTC


192300Z 2000/2024 32010KT 9999 BKN015
TEMPO 2003/2011 5000 -RADZ BKN007
BECMG 2012/2015 36015G25KT CAVOK
BECMG 2018/2020 36010KT
Pas de NOTAMs connus pour ce terrain.



MET'MAP, la Météo Aéronautique d'un coup d'oeil ! - Copyright ORBIFLY Décembre 2007 - Disclaimer

ORBIFLY MET'MAP TEAM :

Programmation & Développement : Alexandra Zaïnal
Conception & Développement : Baudouin d'Aumeries
Co-Programmation & Développement : Marc-Olivier Méhu
Soutien technique & logistique : Manuel Goepfert

Contact : metmap@orbifly.com




SOURCES & CREDITS :

   NOAA